Hastings, West Virginia
Current Conditions -  °F | °C
As of 11:31 PM on Thursday 27 Nov 2014 (Local Time) from KCKB Reporting Station
Overcast Overcast  
Wind Chill: -6°   Ceiling: 1600
Heat Index: -2°   Visibility: 8mi
Dew Point: -4°   Wind: 7mph
Humidity: 85%   Direction: 260°W
Pressure: 30.25"   Gusts: NA
Location:  39.5697°N, 80.6462°W
Report Text: KCKB 280431Z AUTO 26006KT 8SM BKN016 OVC024 M02/M04 A3025 RMK AO2 SNE13 P0000 T10171039 TSNO
Loading
Personal Weather Stations






























Interactive Weather Map New forecast layout! Learn more

10-Day Weather Forecast

Advertisements
Track Severe Weather on mobile